sensor_id;sensor_type;location;lat;lon;timestamp;pressure;altitude;pressure_sealevel;temperature;humidity
23953;BME280;12163;49.316;6.092;2023-02-28T00:01:06;100337.00;;;1.55;45.84
23953;BME280;12163;49.316;6.092;2023-02-28T00:03:32;100336.81;;;1.50;45.79
23953;BME280;12163;49.316;6.092;2023-02-28T00:06:05;100331.91;;;1.47;46.10
23953;BME280;12163;49.316;6.092;2023-02-28T00:08:32;100336.63;;;1.45;46.08
23953;BME280;12163;49.316;6.092;2023-02-28T00:11:14;100327.44;;;1.41;46.22
23953;BME280;12163;49.316;6.092;2023-02-28T00:13:43;100333.97;;;1.38;46.27
23953;BME280;12163;49.316;6.092;2023-02-28T00:16:21;100334.63;;;1.34;46.45
23953;BME280;12163;49.316;6.092;2023-02-28T00:18:48;100334.81;;;1.32;46.88
23953;BME280;12163;49.316;6.092;2023-02-28T00:21:16;100327.44;;;1.28;46.89
23953;BME280;12163;49.316;6.092;2023-02-28T00:23:43;100334.81;;;1.26;47.06
23953;BME280;12163;49.316;6.092;2023-02-28T00:26:10;100331.75;;;1.22;46.91
23953;BME280;12163;49.316;6.092;2023-02-28T00:28:37;100334.81;;;1.19;47.49
23953;BME280;12163;49.316;6.092;2023-02-28T00:31:03;100328.69;;;1.19;47.19
23953;BME280;12163;49.316;6.092;2023-02-28T00:33:31;100336.44;;;1.20;47.27
23953;BME280;12163;49.316;6.092;2023-02-28T00:36:02;100339.50;;;1.17;47.54
23953;BME280;12163;49.316;6.092;2023-02-28T00:38:30;100335.44;;;1.15;47.60
23953;BME280;12163;49.316;6.092;2023-02-28T00:40:56;100336.47;;;1.14;47.98
23953;BME280;12163;49.316;6.092;2023-02-28T00:43:25;100337.50;;;1.13;47.94
23953;BME280;12163;49.316;6.092;2023-02-28T00:45:51;100334.19;;;1.11;48.34
23953;BME280;12163;49.316;6.092;2023-02-28T00:48:18;100346.25;;;1.07;48.07
23953;BME280;12163;49.316;6.092;2023-02-28T00:50:48;100346.47;;;1.05;48.20
23953;BME280;12163;49.316;6.092;2023-02-28T00:53:15;100352.00;;;1.04;48.04
23953;BME280;12163;49.316;6.092;2023-02-28T00:55:42;100348.72;;;1.02;48.38
23953;BME280;12163;49.316;6.092;2023-02-28T00:58:08;100350.78;;;1.00;48.43
23953;BME280;12163;49.316;6.092;2023-02-28T01:00:35;100351.59;;;1.00;48.53
23953;BME280;12163;49.316;6.092;2023-02-28T01:03:01;100356.50;;;0.97;48.62
23953;BME280;12163;49.316;6.092;2023-02-28T01:05:28;100353.22;;;0.95;48.79
23953;BME280;12163;49.316;6.092;2023-02-28T01:07:55;100352.41;;;0.94;48.62
23953;BME280;12163;49.316;6.092;2023-02-28T01:10:21;100352.63;;;0.93;48.95
23953;BME280;12163;49.316;6.092;2023-02-28T01:12:48;100361.00;;;0.90;49.03
23953;BME280;12163;49.316;6.092;2023-02-28T01:15:14;100359.34;;;0.89;48.96
23953;BME280;12163;49.316;6.092;2023-02-28T01:17:41;100363.00;;;0.88;48.96
23953;BME280;12163;49.316;6.092;2023-02-28T01:20:08;100354.84;;;0.89;49.12
23953;BME280;12163;49.316;6.092;2023-02-28T01:22:36;100356.69;;;0.89;49.33
23953;BME280;12163;49.316;6.092;2023-02-28T01:25:02;100361.00;;;0.90;49.32
23953;BME280;12163;49.316;6.092;2023-02-28T01:27:29;100350.75;;;0.87;49.57
23953;BME280;12163;49.316;6.092;2023-02-28T01:29:56;100350.13;;;0.85;49.44
23953;BME280;12163;49.316;6.092;2023-02-28T01:32:22;100353.81;;;0.84;49.54
23953;BME280;12163;49.316;6.092;2023-02-28T01:34:49;100354.03;;;0.82;49.66
23953;BME280;12163;49.316;6.092;2023-02-28T01:37:16;100352.59;;;0.80;49.74
23953;BME280;12163;49.316;6.092;2023-02-28T01:39:42;100345.03;;;0.77;50.22
23953;BME280;12163;49.316;6.092;2023-02-28T01:42:09;100351.16;;;0.77;50.08
23953;BME280;12163;49.316;6.092;2023-02-28T01:44:59;100346.47;;;0.73;50.27
23953;BME280;12163;49.316;6.092;2023-02-28T01:47:30;100349.13;;;0.73;50.27
23953;BME280;12163;49.316;6.092;2023-02-28T01:49:58;100344.22;;;0.70;50.13
23953;BME280;12163;49.316;6.092;2023-02-28T01:52:27;100355.25;;;0.67;50.51
23953;BME280;12163;49.316;6.092;2023-02-28T01:54:57;100343.97;;;0.65;51.11
23953;BME280;12163;49.316;6.092;2023-02-28T01:57:29;100351.56;;;0.61;50.97
23953;BME280;12163;49.316;6.092;2023-02-28T02:02:35;100338.44;;;0.53;51.52
23953;BME280;12163;49.316;6.092;2023-02-28T02:05:08;100341.31;;;0.52;51.26
23953;BME280;12163;49.316;6.092;2023-02-28T02:07:36;100338.03;;;0.43;51.51
23953;BME280;12163;49.316;6.092;2023-02-28T02:10:16;100332.53;;;0.45;51.67
23953;BME280;12163;49.316;6.092;2023-02-28T02:32:24;100333.69;;;0.29;53.42
23953;BME280;12163;49.316;6.092;2023-02-28T02:38:04;100331.25;;;0.28;53.20
23953;BME280;12163;49.316;6.092;2023-02-28T02:43:29;100333.91;;;0.28;53.69
23953;BME280;12163;49.316;6.092;2023-02-28T02:46:03;100331.03;;;0.29;53.82
23953;BME280;12163;49.316;6.092;2023-02-28T02:48:34;100321.44;;;0.28;54.14
23953;BME280;12163;49.316;6.092;2023-02-28T02:51:07;100328.59;;;0.28;54.36
23953;BME280;12163;49.316;6.092;2023-02-28T02:53:44;100333.91;;;0.28;54.23
23953;BME280;12163;49.316;6.092;2023-02-28T02:56:13;100327.78;;;0.27;54.42
23953;BME280;12163;49.316;6.092;2023-02-28T02:58:42;100334.31;;;0.25;54.63
23953;BME280;12163;49.316;6.092;2023-02-28T03:01:19;100328.59;;;0.21;54.90
23953;BME280;12163;49.316;6.092;2023-02-28T03:03:59;100328.59;;;0.21;54.91
23953;BME280;12163;49.316;6.092;2023-02-28T03:06:27;100331.41;;;0.20;55.08
23953;BME280;12163;49.316;6.092;2023-02-28T03:08:54;100327.75;;;0.21;55.28
23953;BME280;12163;49.316;6.092;2023-02-28T03:11:21;100317.13;;;0.21;55.04
23953;BME280;12163;49.316;6.092;2023-02-28T03:16:33;100320.03;;;0.26;55.43
23953;BME280;12163;49.316;6.092;2023-02-28T03:19:10;100318.97;;;0.20;55.57
23953;BME280;12163;49.316;6.092;2023-02-28T03:21:58;100313.47;;;0.22;55.38
23953;BME280;12163;49.316;6.092;2023-02-28T03:24:54;100317.13;;;0.21;55.34
23953;BME280;12163;49.316;6.092;2023-02-28T03:27:29;100315.75;;;0.25;55.70
23953;BME280;12163;49.316;6.092;2023-02-28T03:30:02;100319.19;;;0.25;56.14
23953;BME280;12163;49.316;6.092;2023-02-28T03:32:37;100309.81;;;0.23;55.98
23953;BME280;12163;49.316;6.092;2023-02-28T03:35:28;100311.81;;;0.21;55.86
23953;BME280;12163;49.316;6.092;2023-02-28T03:38:05;100313.88;;;0.19;56.15
23953;BME280;12163;49.316;6.092;2023-02-28T03:40:35;100313.88;;;0.19;56.09
23953;BME280;12163;49.316;6.092;2023-02-28T03:43:10;100308.97;;;0.16;56.08
23953;BME280;12163;49.316;6.092;2023-02-28T03:45:40;100313.47;;;0.15;56.56
23953;BME280;12163;49.316;6.092;2023-02-28T03:50:52;100311.81;;;0.08;56.97
23953;BME280;12163;49.316;6.092;2023-02-28T03:53:25;100318.94;;;0.01;56.72
23953;BME280;12163;49.316;6.092;2023-02-28T03:56:17;100315.88;;;0.04;56.79
23953;BME280;12163;49.316;6.092;2023-02-28T03:58:53;100315.47;;;0.07;57.06
23953;BME280;12163;49.316;6.092;2023-02-28T04:01:28;100321.41;;;0.09;56.89
23953;BME280;12163;49.316;6.092;2023-02-28T04:03:57;100320.38;;;0.10;56.82
23953;BME280;12163;49.316;6.092;2023-02-28T04:06:24;100320.38;;;0.10;57.22
23953;BME280;12163;49.316;6.092;2023-02-28T04:08:51;100321.19;;;0.10;56.99
23953;BME280;12163;49.316;6.092;2023-02-28T04:13:49;100321.41;;;0.09;57.28
23953;BME280;12163;49.316;6.092;2023-02-28T04:16:16;100323.84;;;0.10;57.20
23953;BME280;12163;49.316;6.092;2023-02-28T04:18:59;100315.06;;;0.10;57.31
23953;BME280;12163;49.316;6.092;2023-02-28T04:21:30;100318.13;;;0.07;57.43
23953;BME280;12163;49.316;6.092;2023-02-28T04:23:58;100319.16;;;0.06;56.92
23953;BME280;12163;49.316;6.092;2023-02-28T04:26:34;100323.84;;;0.04;57.22
23953;BME280;12163;49.316;6.092;2023-02-28T04:29:03;100328.53;;;0.02;57.48
23953;BME280;12163;49.316;6.092;2023-02-28T04:31:31;100324.25;;;0.01;57.29
23953;BME280;12163;49.316;6.092;2023-02-28T04:33:58;100321.19;;;0.04;57.80
23953;BME280;12163;49.316;6.092;2023-02-28T04:36:25;100319.94;;;0.00;57.84
23953;BME280;12163;49.316;6.092;2023-02-28T04:38:52;100324.25;;;0.01;57.48
23953;BME280;12163;49.316;6.092;2023-02-28T04:41:19;100317.31;;;0.00;57.92
23953;BME280;12163;49.316;6.092;2023-02-28T04:43:46;100323.59;;;-0.01;58.05
23953;BME280;12163;49.316;6.092;2023-02-28T04:46:13;100314.84;;;-0.02;57.99
23953;BME280;12163;49.316;6.092;2023-02-28T04:48:40;100316.66;;;-0.02;58.11
23953;BME280;12163;49.316;6.092;2023-02-28T04:51:09;100317.47;;;-0.02;58.16
23953;BME280;12163;49.316;6.092;2023-02-28T04:53:37;100311.34;;;-0.02;58.42
23953;BME280;12163;49.316;6.092;2023-02-28T04:56:06;100313.38;;;-0.04;57.75
23953;BME280;12163;49.316;6.092;2023-02-28T04:58:34;100314.22;;;-0.03;57.82
23953;BME280;12163;49.316;6.092;2023-02-28T05:01:03;100315.41;;;-0.06;58.41
23953;BME280;12163;49.316;6.092;2023-02-28T05:03:30;100317.44;;;-0.08;58.32
23953;BME280;12163;49.316;6.092;2023-02-28T05:05:57;100317.66;;;-0.09;58.10
23953;BME280;12163;49.316;6.092;2023-02-28T05:08:23;100320.69;;;-0.12;58.58
23953;BME280;12163;49.316;6.092;2023-02-28T05:10:50;100329.66;;;-0.13;58.80
23953;BME280;12163;49.316;6.092;2023-02-28T05:13:16;100331.69;;;-0.15;58.32
23953;BME280;12163;49.316;6.092;2023-02-28T05:15:43;100323.56;;;-0.14;58.75
23953;BME280;12163;49.316;6.092;2023-02-28T05:18:10;100321.94;;;-0.15;58.77
23953;BME280;12163;49.316;6.092;2023-02-28T05:20:36;100320.28;;;-0.16;59.43
23953;BME280;12163;49.316;6.092;2023-02-28T05:23:04;100330.06;;;-0.16;59.81
23953;BME280;12163;49.316;6.092;2023-02-28T05:25:30;100325.59;;;-0.16;60.23
23953;BME280;12163;49.316;6.092;2023-02-28T05:27:57;100336.19;;;-0.16;60.03
23953;BME280;12163;49.316;6.092;2023-02-28T05:30:23;100336.59;;;-0.19;60.36
23953;BME280;12163;49.316;6.092;2023-02-28T05:32:51;100338.63;;;-0.21;60.87
23953;BME280;12163;49.316;6.092;2023-02-28T05:35:18;100342.09;;;-0.20;61.15
23953;BME280;12163;49.316;6.092;2023-02-28T05:37:44;100342.66;;;-0.25;61.72
23953;BME280;12163;49.316;6.092;2023-02-28T05:40:11;100346.34;;;-0.26;61.79
23953;BME280;12163;49.316;6.092;2023-02-28T05:42:38;100342.25;;;-0.28;61.25
23953;BME280;12163;49.316;6.092;2023-02-28T05:45:05;100343.47;;;-0.31;61.63
23953;BME280;12163;49.316;6.092;2023-02-28T05:47:34;100347.13;;;-0.32;61.98
23953;BME280;12163;49.316;6.092;2023-02-28T05:50:01;100345.88;;;-0.36;62.09
23953;BME280;12163;49.316;6.092;2023-02-28T05:52:28;100346.91;;;-0.37;62.60
23953;BME280;12163;49.316;6.092;2023-02-28T05:54:56;100344.25;;;-0.37;63.06
23953;BME280;12163;49.316;6.092;2023-02-28T05:57:23;100352.84;;;0.12;65.06
23953;BME280;12163;49.316;6.092;2023-02-28T05:59:50;100335.22;;;1.29;67.68
23953;BME280;12163;49.316;6.092;2023-02-28T06:02:17;100333.63;;;2.35;65.50
23953;BME280;12163;49.316;6.092;2023-02-28T06:04:45;100327.69;;;2.64;60.57
23953;BME280;12163;49.316;6.092;2023-02-28T06:07:12;100331.50;;;2.50;60.36
23953;BME280;12163;49.316;6.092;2023-02-28T06:09:38;100337.59;;;2.57;59.87
23953;BME280;12163;49.316;6.092;2023-02-28T06:12:06;100343.84;;;2.38;59.61
23953;BME280;12163;49.316;6.092;2023-02-28T06:14:34;100345.44;;;2.46;61.43
23953;BME280;12163;49.316;6.092;2023-02-28T06:17:01;100343.69;;;2.64;59.86
23953;BME280;12163;49.316;6.092;2023-02-28T06:19:29;100342.81;;;2.39;58.73
23953;BME280;12163;49.316;6.092;2023-02-28T06:21:56;100343.41;;;1.97;58.37
23953;BME280;12163;49.316;6.092;2023-02-28T06:24:25;100345.81;;;1.62;59.68
23953;BME280;12163;49.316;6.092;2023-02-28T06:26:54;100352.81;;;1.37;59.58
23953;BME280;12163;49.316;6.092;2023-02-28T06:29:21;100369.16;;;1.08;60.21
23953;BME280;12163;49.316;6.092;2023-02-28T06:31:48;100368.72;;;0.85;60.50
23953;BME280;12163;49.316;6.092;2023-02-28T06:34:15;100361.97;;;0.63;61.19
23953;BME280;12163;49.316;6.092;2023-02-28T06:36:43;100372.75;;;0.48;61.22
23953;BME280;12163;49.316;6.092;2023-02-28T06:39:09;100369.88;;;0.37;61.48
23953;BME280;12163;49.316;6.092;2023-02-28T06:41:36;100372.72;;;0.29;61.72
23953;BME280;12163;49.316;6.092;2023-02-28T06:44:20;100378.38;;;0.19;62.00
23953;BME280;12163;49.316;6.092;2023-02-28T06:46:48;100380.81;;;0.14;62.47
23953;BME280;12163;49.316;6.092;2023-02-28T06:49:15;100381.41;;;0.10;62.29
23953;BME280;12163;49.316;6.092;2023-02-28T06:51:43;100387.50;;;0.04;62.52
23953;BME280;12163;49.316;6.092;2023-02-28T06:54:11;100391.78;;;-0.02;62.89
23953;BME280;12163;49.316;6.092;2023-02-28T06:56:38;100396.63;;;-0.05;63.31
23953;BME280;12163;49.316;6.092;2023-02-28T06:59:05;100396.63;;;-0.05;63.72
23953;BME280;12163;49.316;6.092;2023-02-28T07:01:32;100398.66;;;-0.07;63.43
23953;BME280;12163;49.316;6.092;2023-02-28T07:03:59;100398.25;;;-0.10;63.72
23953;BME280;12163;49.316;6.092;2023-02-28T07:06:27;100400.09;;;-0.11;64.30
23953;BME280;12163;49.316;6.092;2023-02-28T07:08:54;100393.75;;;-0.10;64.28
23953;BME280;12163;49.316;6.092;2023-02-28T07:11:22;100397.03;;;-0.08;64.27
23953;BME280;12163;49.316;6.092;2023-02-28T07:13:56;100407.47;;;-0.06;64.33
23953;BME280;12163;49.316;6.092;2023-02-28T07:16:24;100397.25;;;-0.03;64.75
23953;BME280;12163;49.316;6.092;2023-02-28T07:18:52;100392.19;;;0.02;64.67
23953;BME280;12163;49.316;6.092;2023-02-28T07:21:20;100404.06;;;0.06;64.64
23953;BME280;12163;49.316;6.092;2023-02-28T07:23:46;100400.78;;;0.10;64.36
23953;BME280;12163;49.316;6.092;2023-02-28T07:26:16;100402.06;;;0.14;64.45
23953;BME280;12163;49.316;6.092;2023-02-28T07:28:45;100410.41;;;0.18;64.17
23953;BME280;12163;49.316;6.092;2023-02-28T07:31:12;100407.00;;;0.24;64.43
23953;BME280;12163;49.316;6.092;2023-02-28T07:33:43;100410.28;;;0.26;64.42
23953;BME280;12163;49.316;6.092;2023-02-28T07:36:13;100401.69;;;0.30;63.85
23953;BME280;12163;49.316;6.092;2023-02-28T07:38:41;100402.97;;;0.34;64.02
23953;BME280;12163;49.316;6.092;2023-02-28T07:41:12;100402.34;;;0.39;63.77
23953;BME280;12163;49.316;6.092;2023-02-28T07:43:39;100405.44;;;0.42;63.65
23953;BME280;12163;49.316;6.092;2023-02-28T07:46:10;100392.75;;;0.44;63.50
23953;BME280;12163;49.316;6.092;2023-02-28T07:48:37;100403.81;;;0.48;62.94
23953;BME280;12163;49.316;6.092;2023-02-28T07:51:04;100399.75;;;0.52;63.26
23953;BME280;12163;49.316;6.092;2023-02-28T07:53:31;100393.22;;;0.61;63.03
23953;BME280;12163;49.316;6.092;2023-02-28T07:55:58;100402.03;;;0.68;62.93
23953;BME280;12163;49.316;6.092;2023-02-28T07:58:27;100397.72;;;0.73;62.53
23953;BME280;12163;49.316;6.092;2023-02-28T08:00:54;100394.47;;;0.78;62.25
23953;BME280;12163;49.316;6.092;2023-02-28T08:03:22;100402.25;;;0.86;62.21
23953;BME280;12163;49.316;6.092;2023-02-28T08:05:49;100389.41;;;0.96;61.64
23953;BME280;12163;49.316;6.092;2023-02-28T08:08:16;100391.25;;;1.02;61.76
23953;BME280;12163;49.316;6.092;2023-02-28T08:10:43;100395.72;;;1.08;61.72
23953;BME280;12163;49.316;6.092;2023-02-28T08:13:10;100399.22;;;1.15;61.41
23953;BME280;12163;49.316;6.092;2023-02-28T08:15:36;100395.31;;;1.17;61.09
23953;BME280;12163;49.316;6.092;2023-02-28T08:18:03;100400.22;;;1.20;61.21
23953;BME280;12163;49.316;6.092;2023-02-28T08:20:30;100396.97;;;1.25;61.03
23953;BME280;12163;49.316;6.092;2023-02-28T08:22:57;100394.50;;;1.36;60.99
23953;BME280;12163;49.316;6.092;2023-02-28T08:25:23;100386.72;;;1.48;60.85
23953;BME280;12163;49.316;6.092;2023-02-28T08:27:51;100393.50;;;1.57;59.95
23953;BME280;12163;49.316;6.092;2023-02-28T08:30:18;100394.47;;;1.62;60.02
23953;BME280;12163;49.316;6.092;2023-02-28T08:32:45;100399.38;;;1.71;59.34
23953;BME280;12163;49.316;6.092;2023-02-28T08:35:12;100397.75;;;1.77;58.99
23953;BME280;12163;49.316;6.092;2023-02-28T08:37:38;100395.69;;;1.85;59.14
23953;BME280;12163;49.316;6.092;2023-02-28T08:40:06;100396.03;;;1.95;58.49
23953;BME280;12163;49.316;6.092;2023-02-28T08:42:32;100387.84;;;2.03;58.35
23953;BME280;12163;49.316;6.092;2023-02-28T08:44:59;100382.88;;;2.13;58.28
23953;BME280;12163;49.316;6.092;2023-02-28T08:47:26;100389.41;;;2.24;57.62
23953;BME280;12163;49.316;6.092;2023-02-28T08:49:53;100389.38;;;2.30;57.41
23953;BME280;12163;49.316;6.092;2023-02-28T08:52:19;100385.25;;;2.34;57.08
23953;BME280;12163;49.316;6.092;2023-02-28T08:54:46;100380.53;;;2.36;56.68
23953;BME280;12163;49.316;6.092;2023-02-28T08:57:13;100391.38;;;2.41;56.44
23953;BME280;12163;49.316;6.092;2023-02-28T08:59:39;100391.56;;;2.46;56.21
23953;BME280;12163;49.316;6.092;2023-02-28T09:02:09;100377.81;;;2.49;55.91
23953;BME280;12163;49.316;6.092;2023-02-28T09:04:38;100376.97;;;2.55;55.85
23953;BME280;12163;49.316;6.092;2023-02-28T09:07:05;100381.22;;;2.63;55.43
23953;BME280;12163;49.316;6.092;2023-02-28T09:09:31;100374.22;;;2.68;55.75
23953;BME280;12163;49.316;6.092;2023-02-28T09:12:00;100376.63;;;2.76;55.40
23953;BME280;12163;49.316;6.092;2023-02-28T09:14:26;100386.69;;;2.74;54.99
23953;BME280;12163;49.316;6.092;2023-02-28T09:16:53;100365.81;;;2.71;54.72
23953;BME280;12163;49.316;6.092;2023-02-28T09:19:20;100373.97;;;2.76;54.83
23953;BME280;12163;49.316;6.092;2023-02-28T09:21:46;100363.69;;;2.80;54.23
23953;BME280;12163;49.316;6.092;2023-02-28T09:24:13;100375.31;;;2.85;54.00
23953;BME280;12163;49.316;6.092;2023-02-28T09:26:41;100379.81;;;2.91;54.08
23953;BME280;12163;49.316;6.092;2023-02-28T09:29:28;100372.53;;;3.05;53.73
23953;BME280;12163;49.316;6.092;2023-02-28T09:31:54;100371.63;;;3.17;53.31
23953;BME280;12163;49.316;6.092;2023-02-28T09:34:25;100369.06;;;3.28;53.35
23953;BME280;12163;49.316;6.092;2023-02-28T09:36:51;100365.31;;;3.36;53.11
23953;BME280;12163;49.316;6.092;2023-02-28T09:39:22;100376.28;;;3.46;53.11
23953;BME280;12163;49.316;6.092;2023-02-28T09:41:51;100369.22;;;3.58;53.08
23953;BME280;12163;49.316;6.092;2023-02-28T09:44:40;100357.63;;;3.64;52.50
23953;BME280;12163;49.316;6.092;2023-02-28T09:49:47;100360.59;;;3.74;51.24
23953;BME280;12163;49.316;6.092;2023-02-28T09:52:17;100358.91;;;3.79;51.22
23953;BME280;12163;49.316;6.092;2023-02-28T09:54:45;100360.63;;;3.92;51.23
23953;BME280;12163;49.316;6.092;2023-02-28T09:57:39;100357.94;;;4.10;50.05
23953;BME280;12163;49.316;6.092;2023-02-28T10:00:22;100359.44;;;4.24;48.78
23953;BME280;12163;49.316;6.092;2023-02-28T10:06:14;100361.25;;;4.41;48.73
23953;BME280;12163;49.316;6.092;2023-02-28T10:09:00;100361.69;;;4.38;48.30
23953;BME280;12163;49.316;6.092;2023-02-28T10:11:29;100354.34;;;4.34;47.37
23953;BME280;12163;49.316;6.092;2023-02-28T10:14:02;100359.69;;;4.34;47.41
23953;BME280;12163;49.316;6.092;2023-02-28T10:16:38;100352.72;;;4.33;47.07
23953;BME280;12163;49.316;6.092;2023-02-28T10:19:13;100359.09;;;4.32;46.61
23953;BME280;12163;49.316;6.092;2023-02-28T10:21:46;100357.16;;;4.39;46.87
23953;BME280;12163;49.316;6.092;2023-02-28T10:24:23;100359.63;;;4.40;46.42
23953;BME280;12163;49.316;6.092;2023-02-28T10:26:59;100356.28;;;4.45;46.68
23953;BME280;12163;49.316;6.092;2023-02-28T10:29:28;100362.09;;;4.53;45.69
23953;BME280;12163;49.316;6.092;2023-02-28T10:32:01;100357.84;;;4.64;45.87
23953;BME280;12163;49.316;6.092;2023-02-28T10:34:28;100350.69;;;4.76;45.75
23953;BME280;12163;49.316;6.092;2023-02-28T10:36:55;100342.00;;;4.92;45.27
23953;BME280;12163;49.316;6.092;2023-02-28T10:39:35;100339.47;;;4.96;45.70
23953;BME280;12163;49.316;6.092;2023-02-28T10:42:04;100344.59;;;5.09;45.51
23953;BME280;12163;49.316;6.092;2023-02-28T10:44:31;100338.66;;;5.19;44.90
23953;BME280;12163;49.316;6.092;2023-02-28T10:46:59;100346.94;;;5.17;44.12
23953;BME280;12163;49.316;6.092;2023-02-28T10:49:27;100331.81;;;5.11;44.96
23953;BME280;12163;49.316;6.092;2023-02-28T10:51:59;100337.94;;;5.00;44.46
23953;BME280;12163;49.316;6.092;2023-02-28T10:54:34;100337.25;;;4.93;44.67
23953;BME280;12163;49.316;6.092;2023-02-28T10:59:44;100337.25;;;4.93;44.54
23953;BME280;12163;49.316;6.092;2023-02-28T11:02:34;100324.94;;;4.93;44.75
23953;BME280;12163;49.316;6.092;2023-02-28T11:05:02;100319.22;;;5.00;44.88
23953;BME280;12163;49.316;6.092;2023-02-28T11:07:28;100327.53;;;5.10;43.88
23953;BME280;12163;49.316;6.092;2023-02-28T11:10:06;100320.97;;;5.18;44.44
23953;BME280;12163;49.316;6.092;2023-02-28T11:12:39;100314.94;;;5.22;44.33
23953;BME280;12163;49.316;6.092;2023-02-28T11:17:59;100314.16;;;5.45;43.17
23953;BME280;12163;49.316;6.092;2023-02-28T11:20:30;100309.22;;;5.53;43.28
23953;BME280;12163;49.316;6.092;2023-02-28T11:23:00;100320.31;;;5.57;43.31
23953;BME280;12163;49.316;6.092;2023-02-28T11:25:36;100308.66;;;5.51;42.57
23953;BME280;12163;49.316;6.092;2023-02-28T11:28:08;100314.16;;;5.56;42.80
23953;BME280;12163;49.316;6.092;2023-02-28T11:33:31;100306.44;;;5.71;41.86
23953;BME280;12163;49.316;6.092;2023-02-28T11:36:03;100306.22;;;5.73;41.05
23953;BME280;12163;49.316;6.092;2023-02-28T11:38:34;100301.16;;;5.76;41.75
23953;BME280;12163;49.316;6.092;2023-02-28T11:43:46;100311.09;;;5.87;42.02
23953;BME280;12163;49.316;6.092;2023-02-28T11:52:10;100306.69;;;5.70;42.05
23953;BME280;12163;49.316;6.092;2023-02-28T12:02:53;100296.66;;;5.88;43.05
23953;BME280;12163;49.316;6.092;2023-02-28T12:05:46;100292.53;;;5.97;42.20
23953;BME280;12163;49.316;6.092;2023-02-28T12:13:23;100297.03;;;5.80;42.11
23953;BME280;12163;49.316;6.092;2023-02-28T12:26:47;100300.03;;;5.72;40.69
23953;BME280;12163;49.316;6.092;2023-02-28T12:29:30;100290.84;;;5.68;39.83
23953;BME280;12163;49.316;6.092;2023-02-28T12:32:11;100294.00;;;5.65;40.24
23953;BME280;12163;49.316;6.092;2023-02-28T12:34:52;100298.28;;;5.66;40.47
23953;BME280;12163;49.316;6.092;2023-02-28T12:40:17;100287.94;;;5.70;39.73
23953;BME280;12163;49.316;6.092;2023-02-28T12:42:49;100303.66;;;5.66;40.05
23953;BME280;12163;49.316;6.092;2023-02-28T12:45:19;100295.63;;;5.66;40.35
23953;BME280;12163;49.316;6.092;2023-02-28T12:47:57;100295.50;;;5.61;39.82
23953;BME280;12163;49.316;6.092;2023-02-28T12:50:26;100294.34;;;5.57;40.14
23953;BME280;12163;49.316;6.092;2023-02-28T12:58:47;100284.09;;;5.54;40.67
23953;BME280;12163;49.316;6.092;2023-02-28T13:09:39;100281.66;;;5.53;41.00
23953;BME280;12163;49.316;6.092;2023-02-28T13:12:16;100274.44;;;5.53;40.93
23953;BME280;12163;49.316;6.092;2023-02-28T13:14:43;100272.94;;;5.57;40.93
23953;BME280;12163;49.316;6.092;2023-02-28T13:17:12;100276.88;;;5.66;40.77
23953;BME280;12163;49.316;6.092;2023-02-28T13:20:00;100267.78;;;5.67;40.80
23953;BME280;12163;49.316;6.092;2023-02-28T13:22:39;100274.28;;;5.71;41.15
23953;BME280;12163;49.316;6.092;2023-02-28T13:27:55;100269.19;;;5.81;40.82
23953;BME280;12163;49.316;6.092;2023-02-28T13:33:30;100263.66;;;5.99;41.27
23953;BME280;12163;49.316;6.092;2023-02-28T13:38:41;100263.63;;;6.11;40.29
23953;BME280;12163;49.316;6.092;2023-02-28T13:44:36;100258.59;;;6.14;39.98
23953;BME280;12163;49.316;6.092;2023-02-28T13:51:52;100268.50;;;6.14;39.71
23953;BME280;12163;49.316;6.092;2023-02-28T14:05:17;100265.78;;;6.25;39.77
23953;BME280;12163;49.316;6.092;2023-02-28T14:07:49;100260.44;;;6.25;39.16
23953;BME280;12163;49.316;6.092;2023-02-28T14:10:23;100259.94;;;6.28;39.26
23953;BME280;12163;49.316;6.092;2023-02-28T14:13:02;100255.94;;;6.31;38.85
23953;BME280;12163;49.316;6.092;2023-02-28T14:18:05;100264.53;;;6.44;39.10
23953;BME280;12163;49.316;6.092;2023-02-28T14:20:40;100264.34;;;6.51;38.93
23953;BME280;12163;49.316;6.092;2023-02-28T14:23:15;100263.88;;;6.54;39.33
23953;BME280;12163;49.316;6.092;2023-02-28T14:25:51;100268.94;;;6.50;39.29
23953;BME280;12163;49.316;6.092;2023-02-28T14:31:07;100260.19;;;6.43;39.04
23953;BME280;12163;49.316;6.092;2023-02-28T14:36:36;100259.63;;;6.41;39.36
23953;BME280;12163;49.316;6.092;2023-02-28T14:39:19;100258.69;;;6.47;39.60
23953;BME280;12163;49.316;6.092;2023-02-28T14:41:46;100252.84;;;6.50;39.00
23953;BME280;12163;49.316;6.092;2023-02-28T14:44:25;100260.88;;;6.50;38.67
23953;BME280;12163;49.316;6.092;2023-02-28T14:46:54;100263.56;;;6.50;39.14
23953;BME280;12163;49.316;6.092;2023-02-28T14:49:26;100262.50;;;6.51;38.87
23953;BME280;12163;49.316;6.092;2023-02-28T14:54:37;100272.34;;;6.62;39.29
23953;BME280;12163;49.316;6.092;2023-02-28T14:57:04;100262.19;;;6.64;38.90
23953;BME280;12163;49.316;6.092;2023-02-28T14:59:35;100263.72;;;6.60;38.59
23953;BME280;12163;49.316;6.092;2023-02-28T15:02:22;100256.25;;;6.62;38.63
23953;BME280;12163;49.316;6.092;2023-02-28T15:04:56;100258.06;;;6.73;38.82
23953;BME280;12163;49.316;6.092;2023-02-28T15:07:24;100254.66;;;6.77;38.29
23953;BME280;12163;49.316;6.092;2023-02-28T15:10:30;100256.84;;;6.80;38.75
23953;BME280;12163;49.316;6.092;2023-02-28T15:13:00;100250.97;;;7.16;37.92
23953;BME280;12163;49.316;6.092;2023-02-28T15:15:54;100257.84;;;7.29;38.24
23953;BME280;12163;49.316;6.092;2023-02-28T15:18:46;100248.28;;;7.33;37.93
23953;BME280;12163;49.316;6.092;2023-02-28T15:21:22;100250.06;;;7.87;37.78
23953;BME280;12163;49.316;6.092;2023-02-28T15:23:57;100253.91;;;8.38;37.09
23953;BME280;12163;49.316;6.092;2023-02-28T15:26:30;100251.72;;;8.35;36.47
23953;BME280;12163;49.316;6.092;2023-02-28T15:29:05;100244.16;;;8.32;36.18
23953;BME280;12163;49.316;6.092;2023-02-28T15:31:37;100243.03;;;8.29;36.50
23953;BME280;12163;49.316;6.092;2023-02-28T15:34:29;100248.16;;;8.09;36.76
23953;BME280;12163;49.316;6.092;2023-02-28T15:37:33;100243.59;;;8.31;36.56